createdAt,value
2022-12-26T00:00:51.289Z,14.31
2022-12-26T00:01:51.201Z,14.34
2022-12-26T00:02:51.230Z,14.35
2022-12-26T00:03:51.378Z,14.34
2022-12-26T00:04:53.605Z,14.31
2022-12-26T00:05:51.137Z,14.34
2022-12-26T00:06:51.170Z,14.31
2022-12-26T00:07:51.138Z,14.30
2022-12-26T00:08:51.348Z,14.30
2022-12-26T00:09:51.171Z,14.31
2022-12-26T00:10:51.125Z,14.30
2022-12-26T00:11:51.094Z,14.29
2022-12-26T00:13:37.284Z,14.27
2022-12-26T00:13:51.075Z,14.29
2022-12-26T00:14:51.110Z,14.31
2022-12-26T00:15:51.101Z,14.30
2022-12-26T00:16:51.075Z,14.30
2022-12-26T00:17:51.044Z,14.29
2022-12-26T00:18:50.997Z,14.27
2022-12-26T00:19:51.006Z,14.26
2022-12-26T00:20:51.008Z,14.23
2022-12-26T00:21:50.956Z,14.21
2022-12-26T00:22:50.970Z,14.23
2022-12-26T00:23:50.949Z,14.23
2022-12-26T00:24:50.975Z,14.24
2022-12-26T00:25:50.934Z,14.24
2022-12-26T00:26:50.904Z,14.23
2022-12-26T00:27:50.888Z,14.23
2022-12-26T00:28:50.942Z,14.21
2022-12-26T00:29:50.900Z,14.21
2022-12-26T00:30:50.885Z,14.21
2022-12-26T00:31:50.903Z,14.21
2022-12-26T00:32:50.880Z,14.20
2022-12-26T00:33:50.841Z,14.19
2022-12-26T00:34:50.853Z,14.20
2022-12-26T00:35:50.797Z,14.20
2022-12-26T00:36:50.805Z,14.21
2022-12-26T00:37:50.880Z,14.21
2022-12-26T00:38:50.981Z,14.21
2022-12-26T00:39:50.776Z,14.21
2022-12-26T00:40:50.842Z,14.21
2022-12-26T00:41:50.749Z,14.20
2022-12-26T00:42:57.244Z,14.20
2022-12-26T00:43:50.747Z,14.20
2022-12-26T00:44:50.724Z,14.19
2022-12-26T00:45:50.735Z,14.19
2022-12-26T00:46:50.741Z,14.19
2022-12-26T00:47:50.690Z,14.17
2022-12-26T00:48:50.693Z,14.16
2022-12-26T00:50:13.728Z,14.12
2022-12-26T00:50:50.679Z,14.12
2022-12-26T00:51:50.643Z,14.11
2022-12-26T00:52:50.644Z,14.08
2022-12-26T00:53:50.605Z,14.08
2022-12-26T00:54:50.599Z,14.08
2022-12-26T00:55:50.602Z,14.08
2022-12-26T00:56:50.603Z,14.08
2022-12-26T00:57:50.550Z,14.08
2022-12-26T00:58:50.591Z,14.06
2022-12-26T00:59:50.545Z,14.04
2022-12-26T01:00:50.586Z,14.04
2022-12-26T01:01:50.713Z,14.02
2022-12-26T01:02:58.107Z,14.01
2022-12-26T01:03:50.530Z,13.99
2022-12-26T01:04:50.530Z,13.98
2022-12-26T01:05:50.478Z,13.96
2022-12-26T01:06:50.495Z,13.90
2022-12-26T01:08:23.140Z,13.88
2022-12-26T01:08:50.491Z,13.86
2022-12-26T01:09:50.422Z,13.84
2022-12-26T01:10:50.436Z,13.86
2022-12-26T01:11:50.499Z,13.84
2022-12-26T01:12:50.429Z,13.84
2022-12-26T01:13:50.427Z,13.84
2022-12-26T01:14:50.395Z,13.84
2022-12-26T01:15:50.356Z,13.84
2022-12-26T01:16:50.418Z,13.86
2022-12-26T01:17:50.372Z,13.84
2022-12-26T01:18:50.366Z,13.86
2022-12-26T01:19:50.312Z,13.87
2022-12-26T01:20:50.336Z,13.86
2022-12-26T01:21:50.316Z,13.87
2022-12-26T01:22:50.305Z,13.88
2022-12-26T01:23:50.306Z,13.91
2022-12-26T01:24:50.286Z,13.93
2022-12-26T01:26:17.453Z,13.94
2022-12-26T01:26:50.272Z,13.94
2022-12-26T01:27:50.245Z,13.93
2022-12-26T01:28:50.242Z,13.93
2022-12-26T01:29:50.232Z,13.90
2022-12-26T01:30:50.246Z,13.91
2022-12-26T01:31:50.365Z,13.91
2022-12-26T01:32:50.176Z,13.90
2022-12-26T01:33:50.198Z,13.90
2022-12-26T01:34:50.175Z,13.88
2022-12-26T01:35:50.197Z,13.88
2022-12-26T01:36:50.153Z,13.86
2022-12-26T01:37:50.177Z,13.84
2022-12-26T01:38:50.160Z,13.81
2022-12-26T01:39:50.151Z,13.79
2022-12-26T01:40:50.104Z,13.79
2022-12-26T01:41:50.095Z,13.75
2022-12-26T01:42:50.138Z,13.75
2022-12-26T01:43:50.097Z,13.71
2022-12-26T01:44:50.062Z,13.68
2022-12-26T01:45:50.070Z,13.69
2022-12-26T01:46:50.063Z,13.69
2022-12-26T01:47:50.013Z,13.71
2022-12-26T01:48:50.009Z,13.72
2022-12-26T01:49:50.004Z,13.72
2022-12-26T01:50:50.013Z,13.72
2022-12-26T01:51:49.983Z,13.72
2022-12-26T01:52:49.961Z,13.73
2022-12-26T01:53:49.967Z,13.75
2022-12-26T01:54:49.972Z,13.73
2022-12-26T01:55:49.945Z,13.73
2022-12-26T01:56:49.927Z,13.73
2022-12-26T01:57:49.921Z,13.75
2022-12-26T01:58:49.899Z,13.75
2022-12-26T01:59:49.904Z,13.76
2022-12-26T02:00:49.912Z,13.79
2022-12-26T02:01:50.064Z,13.80
2022-12-26T02:02:49.937Z,13.81
2022-12-26T02:03:49.847Z,13.81
2022-12-26T02:04:49.841Z,13.80
2022-12-26T02:05:49.830Z,13.81
2022-12-26T02:06:49.807Z,13.81
2022-12-26T02:07:49.825Z,13.80
2022-12-26T02:08:49.779Z,13.81
2022-12-26T02:09:49.798Z,13.83
2022-12-26T02:10:49.769Z,13.86
2022-12-26T02:11:49.765Z,13.87
2022-12-26T02:12:49.770Z,13.87
2022-12-26T02:13:49.828Z,13.87
2022-12-26T02:14:49.733Z,13.87
2022-12-26T02:15:49.714Z,13.88
2022-12-26T02:16:49.824Z,13.90
2022-12-26T02:17:49.694Z,13.93
2022-12-26T02:18:49.688Z,13.91
2022-12-26T02:19:49.670Z,13.91
2022-12-26T02:20:49.682Z,13.93
2022-12-26T02:21:49.680Z,13.94
2022-12-26T02:22:56.150Z,13.96
2022-12-26T02:23:49.626Z,13.98
2022-12-26T02:24:49.628Z,13.96
2022-12-26T02:25:49.618Z,13.94
2022-12-26T02:26:49.602Z,13.94
2022-12-26T02:27:49.603Z,13.94
2022-12-26T02:28:49.600Z,13.94
2022-12-26T02:29:49.564Z,13.93
2022-12-26T02:30:49.561Z,13.94
2022-12-26T02:31:49.614Z,13.96
2022-12-26T02:32:49.568Z,13.93
2022-12-26T02:33:49.520Z,13.88
2022-12-26T02:34:49.529Z,13.84
2022-12-26T02:35:49.497Z,13.76
2022-12-26T02:36:49.500Z,13.71
2022-12-26T02:37:49.508Z,13.65
2022-12-26T02:38:49.457Z,13.55
2022-12-26T02:39:49.469Z,13.50
2022-12-26T02:40:49.435Z,13.46
2022-12-26T02:41:49.453Z,13.41
2022-12-26T02:42:49.445Z,13.36
2022-12-26T02:43:49.432Z,13.29
2022-12-26T02:44:49.469Z,13.29
2022-12-26T02:45:49.408Z,13.25
2022-12-26T02:46:49.962Z,13.21
2022-12-26T02:47:49.393Z,13.14
2022-12-26T02:48:49.377Z,13.13
2022-12-26T02:49:49.361Z,13.10
2022-12-26T02:50:49.341Z,13.10
2022-12-26T02:51:49.350Z,13.07
2022-12-26T02:52:55.831Z,13.03
2022-12-26T02:53:49.329Z,12.99
2022-12-26T02:54:49.304Z,12.99
2022-12-26T02:55:49.295Z,12.99
2022-12-26T02:56:49.269Z,12.98
2022-12-26T02:57:49.266Z,12.98
2022-12-26T02:58:49.239Z,12.99
2022-12-26T02:59:56.149Z,12.98
2022-12-26T03:00:49.230Z,12.96
2022-12-26T03:01:49.511Z,12.95
2022-12-26T03:02:49.353Z,12.94
2022-12-26T03:03:49.218Z,12.91
2022-12-26T03:04:49.169Z,12.87
2022-12-26T03:05:49.183Z,12.87
2022-12-26T03:06:49.167Z,12.84
2022-12-26T03:07:49.181Z,12.84
2022-12-26T03:08:49.169Z,12.81
2022-12-26T03:09:49.138Z,12.80
2022-12-26T03:10:49.123Z,12.79
2022-12-26T03:11:49.132Z,12.76
2022-12-26T03:12:56.206Z,12.74
2022-12-26T03:13:49.091Z,12.76
2022-12-26T03:14:49.054Z,12.73
2022-12-26T03:15:49.121Z,12.73
2022-12-26T03:16:49.111Z,12.74
2022-12-26T03:17:49.040Z,12.73
2022-12-26T03:18:57.155Z,12.73
2022-12-26T03:19:49.023Z,12.73
2022-12-26T03:20:49.007Z,12.73
2022-12-26T03:21:49.017Z,12.74
2022-12-26T03:22:48.983Z,12.76
2022-12-26T03:23:49.010Z,12.73
2022-12-26T03:24:48.946Z,12.77
2022-12-26T03:25:48.961Z,12.84
2022-12-26T03:26:48.943Z,12.85
2022-12-26T03:27:48.923Z,12.88
2022-12-26T03:28:48.920Z,12.89
2022-12-26T03:29:49.454Z,12.87
2022-12-26T03:30:48.988Z,12.88
2022-12-26T03:31:48.898Z,12.87
2022-12-26T03:32:55.403Z,12.85
2022-12-26T03:33:48.871Z,12.87
2022-12-26T03:34:48.853Z,12.87
2022-12-26T03:35:48.855Z,12.85
2022-12-26T03:36:48.836Z,12.85
2022-12-26T03:37:50.364Z,12.80
2022-12-26T03:38:48.813Z,12.79
2022-12-26T03:39:48.791Z,12.80
2022-12-26T03:40:48.800Z,12.80
2022-12-26T03:41:48.766Z,12.80
2022-12-26T03:42:48.738Z,12.79
2022-12-26T03:43:48.743Z,12.77
2022-12-26T03:44:53.481Z,12.77
2022-12-26T03:45:48.765Z,12.79
2022-12-26T03:46:48.778Z,12.87
2022-12-26T03:47:48.711Z,12.91
2022-12-26T03:48:48.671Z,12.98
2022-12-26T03:49:48.707Z,13.07
2022-12-26T03:50:48.685Z,13.14
2022-12-26T03:51:48.678Z,13.22
2022-12-26T03:52:48.643Z,13.27
2022-12-26T03:53:48.643Z,13.29
2022-12-26T03:54:48.607Z,13.38
2022-12-26T03:55:48.603Z,13.41
2022-12-26T03:56:48.612Z,13.38
2022-12-26T03:57:48.584Z,13.38
2022-12-26T03:58:48.587Z,13.39
2022-12-26T03:59:48.691Z,13.39
2022-12-26T04:00:48.571Z,13.44
2022-12-26T04:01:48.642Z,13.46
2022-12-26T04:02:48.519Z,13.44
2022-12-26T04:03:48.635Z,13.44
2022-12-26T04:04:48.502Z,13.46
2022-12-26T04:05:48.483Z,13.47
2022-12-26T04:06:48.507Z,13.44
2022-12-26T04:07:56.198Z,13.44
2022-12-26T04:08:48.489Z,13.44
2022-12-26T04:09:48.484Z,13.46
2022-12-26T04:10:48.446Z,13.46
2022-12-26T04:11:48.441Z,13.44
2022-12-26T04:12:48.456Z,13.44
2022-12-26T04:13:48.443Z,13.43
2022-12-26T04:14:48.393Z,13.41
2022-12-26T04:15:48.455Z,13.41
2022-12-26T04:16:48.379Z,13.41
2022-12-26T04:17:48.394Z,13.43
2022-12-26T04:18:48.572Z,13.46
2022-12-26T04:19:48.348Z,13.47
2022-12-26T04:20:48.354Z,13.47
2022-12-26T04:21:48.326Z,13.46
2022-12-26T04:22:48.337Z,13.44
2022-12-26T04:23:48.299Z,13.44
2022-12-26T04:24:48.279Z,13.46
2022-12-26T04:25:51.469Z,13.47
2022-12-26T04:26:48.254Z,13.46
2022-12-26T04:27:48.256Z,13.46
2022-12-26T04:28:48.458Z,13.47
2022-12-26T04:29:48.246Z,13.47
2022-12-26T04:30:48.262Z,13.47
2022-12-26T04:31:48.210Z,13.47
2022-12-26T04:32:48.213Z,13.47
2022-12-26T04:33:48.204Z,13.46
2022-12-26T04:34:48.169Z,13.46
2022-12-26T04:35:48.189Z,13.44
2022-12-26T04:36:48.136Z,13.43
2022-12-26T04:37:48.143Z,13.41
2022-12-26T04:38:48.129Z,13.43
2022-12-26T04:39:48.138Z,13.41
2022-12-26T04:40:48.093Z,13.41
2022-12-26T04:41:48.104Z,13.41
2022-12-26T04:42:48.067Z,13.39
2022-12-26T04:43:51.569Z,13.38
2022-12-26T04:44:48.097Z,13.36
2022-12-26T04:45:48.260Z,13.36
2022-12-26T04:46:48.201Z,13.39
2022-12-26T04:47:48.026Z,13.41
2022-12-26T04:48:48.131Z,13.43
2022-12-26T04:49:48.013Z,13.44
2022-12-26T04:50:48.000Z,13.43
2022-12-26T04:51:48.000Z,13.44
2022-12-26T04:52:54.495Z,13.43
2022-12-26T04:53:47.975Z,13.44
2022-12-26T04:54:47.973Z,13.44
2022-12-26T04:55:47.950Z,13.43
2022-12-26T04:56:47.939Z,13.43
2022-12-26T04:57:47.943Z,13.41
2022-12-26T04:58:47.911Z,13.41
2022-12-26T04:59:47.896Z,13.41
2022-12-26T05:00:47.910Z,13.38
2022-12-26T05:01:47.974Z,13.38
2022-12-26T05:02:48.011Z,13.38
2022-12-26T05:03:47.972Z,13.36
2022-12-26T05:04:47.829Z,13.36
2022-12-26T05:05:47.823Z,13.36
2022-12-26T05:06:47.806Z,13.38
2022-12-26T05:07:47.863Z,13.36
2022-12-26T05:08:47.815Z,13.36
2022-12-26T05:09:47.780Z,13.36
2022-12-26T05:10:47.778Z,13.41
2022-12-26T05:11:47.788Z,13.44
2022-12-26T05:12:47.769Z,13.46
2022-12-26T05:13:47.758Z,13.44
2022-12-26T05:14:47.717Z,13.41
2022-12-26T05:15:47.751Z,13.35
2022-12-26T05:16:47.715Z,13.29
2022-12-26T05:17:47.695Z,13.24
2022-12-26T05:18:47.723Z,13.16
2022-12-26T05:19:47.771Z,13.10
2022-12-26T05:20:47.673Z,13.06
2022-12-26T05:21:47.673Z,13.01
2022-12-26T05:22:54.162Z,12.95
2022-12-26T05:23:47.636Z,12.96
2022-12-26T05:24:47.636Z,12.96
2022-12-26T05:25:47.646Z,12.98
2022-12-26T05:26:47.625Z,12.95
2022-12-26T05:27:47.588Z,12.88
2022-12-26T05:28:47.593Z,12.88
2022-12-26T05:29:47.575Z,12.84
2022-12-26T05:30:47.651Z,12.80
2022-12-26T05:31:47.564Z,12.76
2022-12-26T05:32:47.542Z,12.66
2022-12-26T05:33:47.507Z,12.61
2022-12-26T05:34:47.525Z,12.52
2022-12-26T05:35:47.527Z,12.44
2022-12-26T05:36:47.513Z,12.36
2022-12-26T05:37:47.466Z,12.26
2022-12-26T05:38:47.453Z,12.21
2022-12-26T05:39:47.438Z,12.15
2022-12-26T05:40:47.452Z,12.13
2022-12-26T05:41:47.445Z,12.08
2022-12-26T05:42:53.934Z,12.01
2022-12-26T05:43:47.427Z,11.98
2022-12-26T05:44:47.416Z,11.96
2022-12-26T05:45:47.403Z,11.90
2022-12-26T05:46:47.420Z,11.93
2022-12-26T05:47:51.824Z,11.94
2022-12-26T05:48:47.390Z,11.94
2022-12-26T05:49:47.343Z,11.90
2022-12-26T05:50:47.402Z,11.90
2022-12-26T05:51:47.322Z,11.88
2022-12-26T05:52:47.331Z,11.88
2022-12-26T05:53:47.303Z,11.85
2022-12-26T05:54:47.310Z,11.88
2022-12-26T05:55:47.259Z,11.85
2022-12-26T05:56:49.479Z,11.81
2022-12-26T05:57:47.241Z,11.81
2022-12-26T05:58:47.258Z,11.78
2022-12-26T05:59:47.234Z,11.78
2022-12-26T06:00:47.270Z,11.77
2022-12-26T06:01:47.318Z,11.79
2022-12-26T06:02:53.807Z,11.77
2022-12-26T06:03:47.241Z,11.77
2022-12-26T06:04:47.215Z,11.81
2022-12-26T06:05:47.179Z,11.78
2022-12-26T06:06:47.151Z,11.77
2022-12-26T06:07:47.155Z,11.74
2022-12-26T06:08:47.149Z,11.69
2022-12-26T06:09:47.133Z,11.67
2022-12-26T06:10:47.150Z,11.66
2022-12-26T06:11:49.125Z,11.66
2022-12-26T06:12:47.100Z,11.62
2022-12-26T06:13:47.074Z,11.62
2022-12-26T06:14:47.078Z,11.57
2022-12-26T06:15:47.051Z,11.54
2022-12-26T06:16:47.117Z,11.54
2022-12-26T06:17:47.024Z,11.53
2022-12-26T06:18:47.034Z,11.51
2022-12-26T06:19:47.275Z,11.48
2022-12-26T06:20:47.004Z,11.49
2022-12-26T06:21:47.029Z,11.46
2022-12-26T06:22:53.498Z,11.46
2022-12-26T06:23:46.971Z,11.46
2022-12-26T06:24:46.984Z,11.45
2022-12-26T06:25:46.951Z,11.41
2022-12-26T06:26:46.952Z,11.36
2022-12-26T06:27:46.907Z,11.33
2022-12-26T06:28:46.941Z,11.31
2022-12-26T06:29:46.908Z,11.31
2022-12-26T06:30:46.913Z,11.35
2022-12-26T06:31:46.969Z,11.36
2022-12-26T06:32:46.869Z,11.35
2022-12-26T06:33:46.851Z,11.30
2022-12-26T06:34:46.839Z,11.26
2022-12-26T06:35:46.817Z,11.23
2022-12-26T06:36:46.837Z,11.23
2022-12-26T06:37:46.807Z,11.24
2022-12-26T06:38:46.869Z,11.24
2022-12-26T06:39:46.811Z,11.24
2022-12-26T06:40:46.777Z,11.24
2022-12-26T06:41:46.771Z,11.24
2022-12-26T06:42:46.778Z,11.28
2022-12-26T06:43:46.761Z,11.27
2022-12-26T06:44:46.730Z,11.23
2022-12-26T06:45:46.734Z,11.21
2022-12-26T06:46:46.790Z,11.23
2022-12-26T06:47:46.688Z,11.20
2022-12-26T06:48:46.682Z,11.12
2022-12-26T06:49:46.668Z,11.05
2022-12-26T06:50:46.659Z,11.01
2022-12-26T06:51:46.657Z,10.94
2022-12-26T06:52:53.239Z,10.93
2022-12-26T06:53:46.616Z,10.91
2022-12-26T06:54:46.614Z,10.87
2022-12-26T06:55:46.600Z,10.86
2022-12-26T06:56:46.612Z,10.87
2022-12-26T06:57:46.593Z,10.87
2022-12-26T06:58:46.573Z,10.86
2022-12-26T06:59:46.569Z,10.80
2022-12-26T07:00:46.633Z,10.75
2022-12-26T07:01:46.845Z,10.72
2022-12-26T07:02:46.721Z,10.73
2022-12-26T07:03:51.307Z,10.73
2022-12-26T07:04:46.508Z,10.73
2022-12-26T07:05:46.536Z,10.73
2022-12-26T07:06:46.481Z,10.70
2022-12-26T07:07:46.489Z,10.68
2022-12-26T07:08:46.478Z,10.63
2022-12-26T07:09:46.449Z,10.62
2022-12-26T07:10:46.471Z,10.63
2022-12-26T07:11:46.434Z,10.58
2022-12-26T07:12:53.964Z,10.62
2022-12-26T07:13:46.403Z,10.62
2022-12-26T07:14:46.413Z,10.60
2022-12-26T07:15:46.393Z,10.62
2022-12-26T07:16:46.474Z,10.63
2022-12-26T07:17:46.373Z,10.62
2022-12-26T07:18:46.376Z,10.60
2022-12-26T07:19:46.350Z,10.60
2022-12-26T07:20:46.328Z,10.60
2022-12-26T07:21:46.315Z,10.62
2022-12-26T07:22:46.316Z,10.62
2022-12-26T07:23:46.379Z,10.63
2022-12-26T07:24:46.288Z,10.60
2022-12-26T07:25:46.265Z,10.60
2022-12-26T07:26:46.341Z,10.58
2022-12-26T07:27:46.244Z,10.58
2022-12-26T07:28:46.256Z,10.58
2022-12-26T07:29:46.221Z,10.58
2022-12-26T07:30:46.223Z,10.55
2022-12-26T07:31:46.306Z,10.55
2022-12-26T07:32:46.214Z,10.54
2022-12-26T07:33:46.212Z,10.52
2022-12-26T07:34:46.196Z,10.51
2022-12-26T07:35:46.173Z,10.51
2022-12-26T07:36:46.168Z,10.52
2022-12-26T07:37:46.150Z,10.54
2022-12-26T07:38:46.133Z,10.54
2022-12-26T07:39:46.130Z,10.55
2022-12-26T07:40:46.120Z,10.52
2022-12-26T07:41:46.110Z,10.51
2022-12-26T07:42:52.655Z,10.49
2022-12-26T07:43:46.142Z,10.49
2022-12-26T07:44:46.057Z,10.49
2022-12-26T07:45:46.245Z,10.51
2022-12-26T07:46:46.041Z,10.51
2022-12-26T07:47:46.035Z,10.49
2022-12-26T07:48:46.048Z,10.49
2022-12-26T07:49:46.002Z,10.49
2022-12-26T07:50:46.014Z,10.51
2022-12-26T07:51:46.011Z,10.54
2022-12-26T07:52:45.974Z,10.54
2022-12-26T07:53:45.955Z,10.55
2022-12-26T07:54:46.058Z,10.55
2022-12-26T07:55:45.964Z,10.55
2022-12-26T07:56:45.949Z,10.54
2022-12-26T07:57:48.906Z,10.55
2022-12-26T07:58:45.902Z,10.55
2022-12-26T07:59:45.917Z,10.55
2022-12-26T08:00:45.909Z,10.55
2022-12-26T08:01:45.991Z,10.55
2022-12-26T08:02:45.975Z,10.55
2022-12-26T08:03:45.912Z,10.52
2022-12-26T08:04:45.885Z,10.58
2022-12-26T08:05:45.854Z,10.55
2022-12-26T08:06:45.821Z,10.55
2022-12-26T08:07:45.886Z,10.54
2022-12-26T08:08:50.844Z,10.55
2022-12-26T08:09:45.779Z,10.54
2022-12-26T08:10:45.782Z,10.55
2022-12-26T08:11:45.799Z,10.57
2022-12-26T08:12:52.303Z,10.54
2022-12-26T08:13:45.735Z,10.55
2022-12-26T08:14:45.729Z,10.58
2022-12-26T08:15:45.719Z,10.57
2022-12-26T08:16:51.414Z,10.57
2022-12-26T08:17:45.712Z,10.58
2022-12-26T08:18:45.719Z,10.58
2022-12-26T08:19:45.704Z,10.58
2022-12-26T08:20:45.712Z,10.62
2022-12-26T08:21:45.685Z,10.66
2022-12-26T08:22:45.638Z,10.69
2022-12-26T08:23:45.655Z,10.68
2022-12-26T08:24:45.638Z,10.65
2022-12-26T08:25:45.672Z,10.60
2022-12-26T08:26:45.599Z,10.62
2022-12-26T08:27:45.601Z,10.62
2022-12-26T08:28:45.584Z,10.63
2022-12-26T08:29:45.567Z,10.62
2022-12-26T08:30:45.572Z,10.62
2022-12-26T08:31:45.562Z,10.65
2022-12-26T08:32:52.065Z,10.63
2022-12-26T08:33:45.533Z,10.63
2022-12-26T08:34:45.517Z,10.62
2022-12-26T08:35:45.503Z,10.58
2022-12-26T08:36:45.482Z,10.60
2022-12-26T08:37:45.495Z,10.62
2022-12-26T08:38:45.470Z,10.62
2022-12-26T08:39:45.469Z,10.63
2022-12-26T08:40:45.490Z,10.66
2022-12-26T08:41:45.453Z,10.68
2022-12-26T08:43:03.303Z,10.70
2022-12-26T08:44:25.353Z,10.75
2022-12-26T08:44:45.455Z,10.78
2022-12-26T08:45:45.462Z,10.83
2022-12-26T08:46:46.072Z,10.83
2022-12-26T08:47:45.391Z,10.84
2022-12-26T08:48:45.382Z,10.87
2022-12-26T08:49:45.335Z,10.90
2022-12-26T08:50:45.347Z,10.90
2022-12-26T08:51:45.347Z,10.91
2022-12-26T08:52:51.836Z,10.90
2022-12-26T08:53:45.332Z,10.91
2022-12-26T08:54:45.295Z,10.94
2022-12-26T08:55:45.300Z,10.99
2022-12-26T08:56:45.450Z,11.02
2022-12-26T08:57:45.251Z,11.05
2022-12-26T08:58:45.308Z,11.06
2022-12-26T08:59:45.258Z,11.06
2022-12-26T09:00:48.167Z,11.03
2022-12-26T09:01:45.405Z,10.99
2022-12-26T09:02:45.483Z,11.01
2022-12-26T09:03:45.206Z,10.99
2022-12-26T09:04:45.207Z,10.98
2022-12-26T09:05:45.189Z,10.99
2022-12-26T09:06:45.177Z,10.99
2022-12-26T09:07:45.161Z,10.98
2022-12-26T09:08:45.143Z,10.95
2022-12-26T09:09:45.144Z,10.93
2022-12-26T09:10:45.118Z,10.94
2022-12-26T09:11:45.117Z,10.95
2022-12-26T09:12:51.633Z,10.95
2022-12-26T09:13:45.083Z,11.01
2022-12-26T09:14:45.081Z,11.05
2022-12-26T09:15:45.094Z,11.09
2022-12-26T09:16:49.995Z,11.13
2022-12-26T09:17:45.266Z,11.17
2022-12-26T09:18:45.062Z,11.23
2022-12-26T09:19:45.034Z,11.28
2022-12-26T09:20:45.074Z,11.36
2022-12-26T09:21:45.000Z,11.45
2022-12-26T09:22:44.996Z,11.54
2022-12-26T09:23:44.989Z,11.63
2022-12-26T09:24:44.965Z,11.74
2022-12-26T09:25:44.997Z,11.81
2022-12-26T09:26:44.968Z,11.90
2022-12-26T09:27:44.994Z,11.93
2022-12-26T09:28:44.933Z,11.93
2022-12-26T09:29:44.933Z,11.88
2022-12-26T09:30:45.012Z,11.88
2022-12-26T09:31:44.912Z,11.93
2022-12-26T09:32:44.904Z,11.93
2022-12-26T09:33:44.855Z,11.94
2022-12-26T09:34:44.853Z,11.90
2022-12-26T09:35:44.857Z,11.88
2022-12-26T09:36:44.840Z,11.84
2022-12-26T09:37:44.845Z,11.79
2022-12-26T09:38:44.830Z,11.78
2022-12-26T09:39:44.802Z,11.77
2022-12-26T09:40:44.816Z,11.70
2022-12-26T09:41:44.805Z,11.66
2022-12-26T09:42:44.779Z,11.64
2022-12-26T09:43:49.899Z,11.62
2022-12-26T09:44:44.762Z,11.60
2022-12-26T09:45:44.815Z,11.62
2022-12-26T09:46:44.730Z,11.64
2022-12-26T09:47:44.751Z,11.70
2022-12-26T09:48:44.739Z,11.74
2022-12-26T09:49:44.684Z,11.72
2022-12-26T09:50:44.692Z,11.72
2022-12-26T09:51:44.666Z,11.70
2022-12-26T09:52:44.652Z,11.74
2022-12-26T09:53:44.648Z,11.81
2022-12-26T09:54:44.659Z,11.88
2022-12-26T09:55:44.633Z,11.96
2022-12-26T09:57:44.611Z,12.13
2022-12-26T09:58:44.667Z,12.36
2022-12-26T09:59:44.594Z,12.62
2022-12-26T10:00:44.587Z,12.74
2022-12-26T10:01:44.802Z,12.84
2022-12-26T10:03:55.235Z,12.79
2022-12-26T10:04:56.237Z,12.79
2022-12-26T10:05:56.221Z,12.81
2022-12-26T10:06:56.208Z,12.76
2022-12-26T10:07:56.283Z,12.67
2022-12-26T10:08:56.181Z,12.69
2022-12-26T10:09:56.172Z,12.62
2022-12-26T10:10:56.132Z,12.59
2022-12-26T10:11:56.149Z,12.56
2022-12-26T10:12:56.131Z,12.61
2022-12-26T10:13:56.130Z,12.62
2022-12-26T10:14:56.109Z,12.62
2022-12-26T10:15:56.142Z,12.63
2022-12-26T10:16:56.078Z,12.69
2022-12-26T10:17:56.075Z,12.62
2022-12-26T10:18:56.057Z,12.74
2022-12-26T10:19:56.042Z,12.84
2022-12-26T10:20:56.036Z,12.91
2022-12-26T10:21:56.050Z,13.01
2022-12-26T10:22:56.022Z,13.12
2022-12-26T10:23:55.994Z,13.13
2022-12-26T10:24:55.972Z,13.29
2022-12-26T10:25:55.987Z,13.35
2022-12-26T10:26:55.970Z,13.36
2022-12-26T10:27:55.952Z,13.35
2022-12-26T10:28:56.014Z,13.28
2022-12-26T10:29:55.946Z,13.21
2022-12-26T10:30:55.947Z,13.21
2022-12-26T10:31:55.925Z,13.32
2022-12-26T10:33:02.388Z,13.48
2022-12-26T10:33:55.895Z,13.75
2022-12-26T10:34:55.891Z,14.04
2022-12-26T10:35:55.853Z,14.36
2022-12-26T10:36:55.850Z,14.59
2022-12-26T10:37:55.834Z,14.56
2022-12-26T10:38:55.807Z,14.44
2022-12-26T10:39:55.835Z,14.44
2022-12-26T10:40:55.789Z,14.44
2022-12-26T10:41:55.817Z,14.56
2022-12-26T10:42:55.785Z,14.46
2022-12-26T10:43:55.760Z,14.45
2022-12-26T10:44:55.751Z,14.42
2022-12-26T10:45:55.778Z,14.41
2022-12-26T10:46:55.722Z,14.36
2022-12-26T10:47:55.725Z,14.24
2022-12-26T10:48:55.716Z,14.24
2022-12-26T10:49:55.811Z,14.27
2022-12-26T10:50:55.721Z,14.23
2022-12-26T10:51:55.696Z,14.20
2022-12-26T10:52:55.694Z,14.20
2022-12-26T10:53:55.684Z,14.11
2022-12-26T10:55:28.896Z,14.05
2022-12-26T10:55:55.648Z,13.98
2022-12-26T10:56:55.648Z,13.96
2022-12-26T10:57:55.609Z,13.87
2022-12-26T10:58:55.628Z,13.83
2022-12-26T10:59:55.675Z,13.79
2022-12-26T11:00:55.598Z,13.71
2022-12-26T11:01:55.709Z,13.68
2022-12-26T11:03:02.216Z,13.69
2022-12-26T11:03:55.596Z,13.68
2022-12-26T11:05:13.577Z,13.65
2022-12-26T11:06:10.860Z,13.62
2022-12-26T11:06:55.568Z,13.61
2022-12-26T11:07:55.551Z,13.71
2022-12-26T11:08:55.521Z,13.75
2022-12-26T11:09:55.506Z,13.81
2022-12-26T11:10:55.472Z,13.87
2022-12-26T11:11:55.496Z,13.91
2022-12-26T11:12:55.467Z,13.94
2022-12-26T11:14:01.792Z,13.84
2022-12-26T11:14:55.452Z,13.72
2022-12-26T11:15:55.433Z,13.68
2022-12-26T11:16:55.448Z,13.59
2022-12-26T11:17:55.406Z,13.55
2022-12-26T11:18:55.396Z,13.53
2022-12-26T11:19:55.355Z,13.54
2022-12-26T11:21:06.717Z,13.53
2022-12-26T11:21:55.353Z,13.53
2022-12-26T11:22:55.362Z,13.54
2022-12-26T11:23:55.313Z,13.57
2022-12-26T11:24:56.297Z,13.63
2022-12-26T11:25:55.286Z,13.69
2022-12-26T11:26:55.302Z,13.72
2022-12-26T11:27:55.256Z,13.80
2022-12-26T11:28:55.321Z,13.79
2022-12-26T11:29:55.275Z,13.80
2022-12-26T11:30:55.344Z,13.86
2022-12-26T11:31:55.256Z,13.86
2022-12-26T11:33:01.736Z,13.84
2022-12-26T11:33:55.211Z,13.91
2022-12-26T11:34:55.229Z,13.98
2022-12-26T11:35:55.189Z,13.98
2022-12-26T11:36:55.187Z,14.02
2022-12-26T11:37:55.199Z,14.04
2022-12-26T11:38:55.220Z,14.06
2022-12-26T11:39:55.147Z,14.09
2022-12-26T11:40:55.180Z,14.09
2022-12-26T11:41:55.159Z,14.08
2022-12-26T11:42:55.099Z,14.09
2022-12-26T11:43:55.101Z,14.09
2022-12-26T11:44:55.121Z,14.12
2022-12-26T11:45:55.084Z,14.12
2022-12-26T11:46:55.153Z,14.13
2022-12-26T11:47:55.069Z,14.12
2022-12-26T11:48:55.055Z,14.17
2022-12-26T11:49:55.038Z,14.19
2022-12-26T11:50:55.017Z,14.19
2022-12-26T11:51:59.263Z,14.16
2022-12-26T11:52:54.996Z,14.16
2022-12-26T11:53:54.998Z,14.09
2022-12-26T11:54:55.008Z,14.11
2022-12-26T11:55:54.973Z,14.16
2022-12-26T11:56:54.941Z,14.23
2022-12-26T11:57:58.509Z,14.30
2022-12-26T11:58:54.957Z,14.36
2022-12-26T11:59:54.930Z,14.48
2022-12-26T12:00:54.935Z,14.52
2022-12-26T12:01:55.057Z,14.54
2022-12-26T12:02:54.937Z,14.49
2022-12-26T12:03:54.911Z,14.41
2022-12-26T12:04:54.868Z,14.41
2022-12-26T12:05:54.847Z,14.31
2022-12-26T12:06:54.831Z,14.21
2022-12-26T12:07:54.819Z,14.19
2022-12-26T12:08:54.807Z,14.06
2022-12-26T12:09:54.810Z,14.02
2022-12-26T12:10:54.801Z,13.96
2022-12-26T12:11:54.787Z,13.91
2022-12-26T12:13:01.589Z,13.84
2022-12-26T12:13:54.772Z,13.80
2022-12-26T12:14:55.199Z,13.79
2022-12-26T12:15:54.759Z,13.75
2022-12-26T12:16:54.757Z,13.71
2022-12-26T12:17:54.741Z,13.72
2022-12-26T12:18:54.727Z,13.69
2022-12-26T12:19:54.752Z,13.71
2022-12-26T12:20:54.682Z,13.69
2022-12-26T12:21:54.698Z,13.68
2022-12-26T12:22:54.657Z,13.66
2022-12-26T12:23:54.640Z,13.66
2022-12-26T12:24:54.615Z,13.63
2022-12-26T12:25:54.624Z,13.62
2022-12-26T12:26:58.781Z,13.62
2022-12-26T12:27:54.596Z,13.63
2022-12-26T12:28:54.605Z,13.62
2022-12-26T12:29:54.570Z,13.62
2022-12-26T12:30:54.567Z,13.62
2022-12-26T12:31:54.825Z,13.62
2022-12-26T12:32:57.176Z,13.61
2022-12-26T12:33:54.549Z,13.62
2022-12-26T12:34:54.533Z,13.62
2022-12-26T12:35:54.516Z,13.65
2022-12-26T12:36:54.501Z,13.68
2022-12-26T12:37:54.494Z,13.72
2022-12-26T12:38:56.775Z,14.02
2022-12-26T12:39:54.477Z,14.36
2022-12-26T12:40:54.452Z,14.48
2022-12-26T12:41:54.445Z,14.41
2022-12-26T12:42:54.428Z,14.54
2022-12-26T12:43:54.407Z,14.46
2022-12-26T12:44:56.673Z,14.59
2022-12-26T12:45:54.429Z,14.75
2022-12-26T12:46:54.387Z,14.75
2022-12-26T12:47:54.354Z,14.54
2022-12-26T12:48:54.371Z,14.49
2022-12-26T12:49:54.359Z,14.41
2022-12-26T12:50:56.765Z,14.26
2022-12-26T12:51:54.336Z,14.23
2022-12-26T12:53:00.875Z,14.17
2022-12-26T12:53:54.310Z,14.11
2022-12-26T12:54:54.298Z,14.06